• Join FlightAware (Why Join?)
  • Login
  • US Flag 
11:38AM EDT


 

Airport Tracker/Info


-or-


 

Live Flight TrackerFlight Track Log ✈ SWA2182 ✈ 10-Aug-2013 ✈ KLAS - KOAK

Flight Track Log - Related Links

Times and Time Zones

All times are in EDT time to prevent confusion due to time zone crossing. See the SWA2182 flight status page for this flight to view local times or setup timezone preferences in your user account.

Time Position Orientation Groundspeed Altitude Reporting Facility
EDT Latitude Longitude Course Direction KTS MPH feet Rate Location/Type
09:49PM 36.0778 -115.1064 92° East 226 260 3,300  Level Los Angeles Center
09:49PM 36.0761 -115.0592 92° East 219 252 4,400 2,340 Climbing Los Angeles Center
09:50PM 36.0706 -114.9650 94° East 245 282 7,600 2,940 Climbing Los Angeles Center
09:52PM 36.0014 -114.9350 161° South 249 287 11,000 2,700 Climbing Los Angeles Center
09:53PM 35.9819 -115.0222 255° West 280 322 13,500 2,280 Climbing Los Angeles Center
09:54PM 35.9719 -115.1375 264° West 322 371 15,800 2,520 Climbing Los Angeles Center
09:55PM 35.9600 -115.2675 264° West 365 420 18,800 2,820 Climbing Los Angeles Center
09:56PM 35.9472 -115.3981 263° West 378 435 21,600 2,580 Climbing Los Angeles Center
09:57PM 35.9358 -115.5342 264° West 392 451 24,200 2,280 Climbing Los Angeles Center
09:58PM 35.9219 -115.6731 263° West 401 461 26,300 2,040 Climbing Los Angeles Center
09:59PM 35.9092 -115.8161 264° West 414 476 28,500 2,220 Climbing Los Angeles Center
10:00PM 35.9072 -115.9644 269° West 415 478 31,000 1,680 Climbing Los Angeles Center
10:01PM 35.9847 -116.0728 311° West 430 495 32,000 480 Climbing Los Angeles Center
10:02PM 36.0817 -116.1842 317° Northwest 429 494 32,000  Level Los Angeles Center
10:03PM 36.1594 -116.2744 317° Northwest 432 497 32,000  Level Los Angeles Center
10:04PM 36.2472 -116.3767 317° Northwest 435 501 32,000  Level Los Angeles Center
10:05PM 36.3522 -116.4961 318° Northwest 430 495 32,000  Level Los Angeles Center
10:06PM 36.4386 -116.5975 317° Northwest 429 494 32,000  Level Los Angeles Center
10:07PM 36.5386 -116.7139 317° Northwest 432 497 32,000  Level Los Angeles Center
10:08PM 36.6372 -116.8064 323° Northwest 438 504 32,000  Level Los Angeles Center
10:09PM 36.7472 -116.8900 329° Northwest 441 507 32,000  Level Los Angeles Center
10:10PM 36.8208 -117.0294 303° West 429 494 32,000  Level Los Angeles Center
10:11PM 36.8636 -117.1647 292° West 419 482 32,000  Level Los Angeles Center
10:12PM 36.9056 -117.3011 291° West 419 482 32,000  Level Los Angeles Center
10:13PM 36.9469 -117.4361 291° West 417 480 32,000  Level Los Angeles Center
10:14PM 36.9883 -117.5725 291° West 417 480 32,000  Level Los Angeles Center
10:15PM 37.0281 -117.7067 290° West 412 474 32,000  Level Los Angeles Center
10:16PM 37.0692 -117.8431 291° West 415 478 32,000  Level Los Angeles Center
10:17PM 37.1097 -117.9783 291° West 415 478 32,000  Level Los Angeles Center
10:19PM 37.1500 -118.1156 290° West 417 480 32,000  Level Los Angeles Center
10:20PM 37.1975 -118.2778 290° West 414 476 32,000  Level Los Angeles Center
10:21PM 37.2378 -118.4144 290° West 415 478 32,000  Level Los Angeles Center
10:22PM 37.2772 -118.5522 290° West 419 482 32,000 -300 Level Los Angeles Center
10:23PM 37.3181 -118.6889 291° West 417 480 31,400 -840 Descending Los Angeles Center
10:24PM 37.3567 -118.8242 290° West 413 475 30,400 -720 Descending Los Angeles Center
10:25PM 37.3958 -118.9614 290° West 414 476 30,000 -240 Descending Los Angeles Center
10:26PM 37.4344 -119.0983 290° West 415 478 30,000  Level Los Angeles Center
10:27PM 37.4828 -119.2758 289° West 412 474 30,000  Level Oakland Center
10:28PM 37.5208 -119.4133 289° West 416 479 30,000  Level Oakland Center
10:29PM 37.5569 -119.5458 289° West 417 480 30,000  Level Oakland Center
10:30PM 37.5947 -119.6819 289° West 413 475 30,000 -600 Level Oakland Center
10:31PM 37.6414 -119.8461 290° West 414 476 28,900 -1,020 Descending Oakland Center
10:32PM 37.6789 -119.9808 289° West 409 471 28,000 -900 Descending Oakland Center
10:33PM 37.7139 -120.1142 288° West 402 463 27,100 -960 Descending Oakland Center
10:34PM 37.7494 -120.2472 289° West 399 459 26,100 -1,020 Descending Oakland Center
10:35PM 37.7858 -120.3775 290° West 393 452 25,100 -1,020 Descending Oakland Center
10:36PM 37.8197 -120.5086 288° West 392 451 24,100 -1,260 Descending Oakland Center
10:37PM 37.8553 -120.6381 289° West 390 449 22,600 -1,800 Descending Oakland Center
10:38PM 37.8667 -120.7333 279° West 368 423 21,100 -2,160 Descending Northern Cal TRACON
10:39PM 37.8500 -120.8500 260° West 356 410 19,100 -1,740 Descending Northern Cal TRACON
10:40PM 37.8333 -120.9667 260° West 348 400 17,700 -1,260 Descending Northern Cal TRACON
10:41PM 37.8167 -121.0833 260° West 359 413 16,800 -1,500 Descending Northern Cal TRACON
10:42PM 37.7833 -121.2000 250° West 370 426 14,900 -1,920 Descending Northern Cal TRACON
10:43PM 37.7500 -121.3000 247° West 335 386 13,000 -1,500 Descending Northern Cal TRACON
10:44PM 37.7667 -121.4167 280° West 308 354 12,000 -1,200 Descending Northern Cal TRACON
10:45PM 37.8000 -121.5167 293° West 302 348 10,600 -1,320 Descending Northern Cal TRACON
10:46PM 37.8000 -121.6000 270° West 282 325 9,400 -1,260 Descending Northern Cal TRACON
10:47PM 37.7333 -121.6500 211° Southwest 274 315 8,100 -1,020 Descending Northern Cal TRACON
10:48PM 37.6667 -121.7000 211° Southwest 277 319 7,300 -660 Descending Northern Cal TRACON
10:49PM 37.6333 -121.7667 238° Southwest 248 285 6,800 -600 Descending Northern Cal TRACON
10:50PM 37.6167 -121.8333 253° West 210 242 6,200 -840 Descending Northern Cal TRACON
10:51PM 37.5667 -121.8833 218° Southwest 196 226 5,100 -900 Descending Northern Cal TRACON
10:52PM 37.5500 -121.9333 247° West 193 222 4,400 -600 Descending Northern Cal TRACON
10:53PM 37.5667 -122.0000 288° West 182 209 3,900 -600 Descending Northern Cal TRACON
10:54PM 37.5833 -122.0500 293° West 162 186 3,300 -720 Descending Northern Cal TRACON
10:55PM 37.6167 -122.0833 322° Northwest 161 185 2,500 -840 Descending Northern Cal TRACON
10:56PM 37.6500 -122.1333 310° West 151 174 1,600 -840 Descending Northern Cal TRACON
10:57PM 37.6667 -122.1667 302° West 134 154 900 -720 Descending Northern Cal TRACON
10:58PM 37.7000 -122.2000 322° Northwest 125 144 300 -600 Descending Northern Cal TRACON
11:00PM 37.7167 -122.2167 270° West  Level FlightAware Approximate
11:07PM 37.7213 -122.2207 270° West  Level Estimated